LFRM/LME METAR and TAF weather

Enter ICAO airport designator
Station Type Date Time Source
LFRM METAR 2019/06/17 13:00 UTC NOAA

LFRM 171300Z AUTO 13004KT 050V200 CAVOK 26/12 Q1017 NOSIG


Station Type Date Time Source
LFRM Decoded METAR 2019/06/17 13:00 UTC NOAA

Le Mans, France (LFRM) 47-56N 000-12E 52M
Jun 17, 2019 - 09:00 AM EDT / 2019.06.17 1300 UTC
Wind: from the SE (130 degrees) at 5 MPH (4 KT) (direction variable):0
Visibility: greater than 7 mile(s):0
Temperature: 78 F (26 C)
Dew Point: 53 F (12 C)
Relative Humidity: 41%
Pressure (altimeter): 30.03 in. Hg (1017 hPa)
ob: LFRM 171300Z AUTO 13004KT 050V200 CAVOK 26/12 Q1017 NOSIG
cycle: 13

Station Type Date Time Source
LFRM TAF 2019/06/17 12:25 UTC NOAA

TAF LFRM 171100Z 1712/1812 VRB04KT CAVOK

Example: see airport list